createdAt,value
2022-11-26T00:00:57.411Z,96008.06
2022-11-26T00:03:25.515Z,96009.97
2022-11-26T00:05:57.023Z,96016.59
2022-11-26T00:08:30.418Z,96018.94
2022-11-26T00:10:58.753Z,96016.41
2022-11-26T00:13:30.957Z,96010.09
2022-11-26T00:15:58.823Z,96008.06
2022-11-26T00:18:27.356Z,96006.63
2022-11-26T00:21:00.697Z,96005.16
2022-11-26T00:23:29.875Z,96005.88
2022-11-26T00:25:59.470Z,96010.69
2022-11-26T00:28:31.414Z,96015.25
2022-11-26T00:31:01.355Z,96018.88
2022-11-26T00:33:30.094Z,96021.16
2022-11-26T00:36:00.395Z,96028.13
2022-11-26T00:38:29.022Z,96012.69
2022-11-26T00:40:56.992Z,96032.91
2022-11-26T00:43:24.782Z,96031.50
2022-11-26T00:45:54.016Z,96039.59
2022-11-26T00:48:21.853Z,96041.09
2022-11-26T00:50:51.864Z,96039.63
2022-11-26T00:53:23.508Z,96040.81
2022-11-26T00:55:51.872Z,96039.63
2022-11-26T00:58:26.189Z,96045.66
2022-11-26T01:00:56.923Z,96045.66
2022-11-26T01:03:25.124Z,96044.94
2022-11-26T01:05:54.565Z,96046.03
2022-11-26T01:08:29.764Z,96055.94
2022-11-26T01:10:57.767Z,96063.28
2022-11-26T01:13:26.253Z,96063.50
2022-11-26T01:15:56.581Z,96063.22
2022-11-26T01:18:25.075Z,96068.16
2022-11-26T01:20:52.910Z,96072.03
2022-11-26T01:23:21.640Z,96070.81
2022-11-26T01:25:49.595Z,96075.75
2022-11-26T01:28:19.832Z,96065.88
2022-11-26T01:30:47.910Z,96074.97
2022-11-26T01:33:17.039Z,96072.69
2022-11-26T01:35:44.857Z,96082.31
2022-11-26T01:38:15.100Z,96085.66
2022-11-26T01:40:56.024Z,96083.13
2022-11-26T01:43:27.939Z,96086.97
2022-11-26T01:45:56.316Z,96087.25
2022-11-26T01:48:29.257Z,96093.16
2022-11-26T01:51:02.504Z,96095.41
2022-11-26T01:53:46.953Z,96096.06
2022-11-26T01:56:28.450Z,96094.91
2022-11-26T01:59:01.798Z,96100.59
2022-11-26T02:01:29.746Z,96105.16
2022-11-26T02:04:11.184Z,96108.56
2022-11-26T02:06:39.654Z,96112.28
2022-11-26T02:09:10.546Z,96106.97
2022-11-26T02:11:39.523Z,96106.16
2022-11-26T02:14:10.362Z,96116.75
2022-11-26T02:17:05.717Z,96108.75
2022-11-26T02:20:04.561Z,96112.88
2022-11-26T02:22:59.183Z,96112.56
2022-11-26T02:25:39.154Z,96112.78
2022-11-26T02:28:35.440Z,96106.34
2022-11-26T02:31:10.682Z,96124.19
2022-11-26T02:33:51.795Z,96117.59
2022-11-26T02:36:25.395Z,96128.44
2022-11-26T02:38:53.888Z,96129.25
2022-11-26T02:41:21.766Z,96120.44
2022-11-26T02:43:49.805Z,96120.16
2022-11-26T02:46:21.082Z,96124.81
2022-11-26T02:48:52.968Z,96113.94
2022-11-26T02:51:24.601Z,96109.94
2022-11-26T02:53:53.496Z,96122.72
2022-11-26T02:56:23.654Z,96125.25
2022-11-26T02:58:53.448Z,96129.25
2022-11-26T03:01:29.374Z,96128.72
2022-11-26T03:04:01.983Z,96135.28
2022-11-26T03:06:33.874Z,96139.81
2022-11-26T03:09:02.040Z,96131.41
2022-11-26T03:11:29.911Z,96129.66
2022-11-26T03:13:57.767Z,96142.75
2022-11-26T03:16:27.043Z,96140.88
2022-11-26T03:18:54.842Z,96137.44
2022-11-26T03:21:22.655Z,96139.47
2022-11-26T03:23:50.420Z,96136.03
2022-11-26T03:26:18.204Z,96137.66
2022-11-26T03:28:46.034Z,96128.69
2022-11-26T03:31:13.882Z,96131.47
2022-11-26T03:33:43.145Z,96130.88
2022-11-26T03:36:11.048Z,96135.03
2022-11-26T03:38:38.814Z,96134.75
2022-11-26T03:41:06.781Z,96139.16
2022-11-26T03:43:34.716Z,96133.25
2022-11-26T03:46:02.534Z,96133.69
2022-11-26T03:48:30.326Z,96136.75
2022-11-26T03:50:59.465Z,96139.00
2022-11-26T03:53:27.460Z,96151.88
2022-11-26T03:55:55.233Z,96149.09
2022-11-26T03:58:23.099Z,96152.72
2022-11-26T04:00:50.932Z,96156.03
2022-11-26T04:03:18.707Z,96162.38
2022-11-26T04:05:46.552Z,96170.03
2022-11-26T04:08:15.672Z,96170.78
2022-11-26T04:10:44.551Z,96175.22
2022-11-26T04:13:12.293Z,96175.78
2022-11-26T04:15:41.146Z,96187.94
2022-11-26T04:18:09.060Z,96184.88
2022-11-26T04:20:36.819Z,96182.59
2022-11-26T04:23:04.563Z,96190.50
2022-11-26T04:25:33.684Z,96193.16
2022-11-26T04:28:01.504Z,96184.03
2022-11-26T04:30:30.107Z,96193.16
2022-11-26T04:32:57.979Z,96197.59
2022-11-26T04:35:25.835Z,96203.63
2022-11-26T04:37:53.590Z,96201.63
2022-11-26T04:40:21.868Z,96213.53
2022-11-26T04:42:50.992Z,96209.66
2022-11-26T04:45:18.993Z,96214.69
2022-11-26T04:47:46.802Z,96217.22
2022-11-26T04:50:14.562Z,96216.91
2022-11-26T04:52:42.317Z,96213.97
2022-11-26T04:55:10.741Z,96223.91
2022-11-26T04:57:38.474Z,96231.72
2022-11-26T05:00:09.378Z,96229.72
2022-11-26T05:02:37.204Z,96228.09
2022-11-26T05:05:05.243Z,96238.94
2022-11-26T05:07:33.213Z,96242.69
2022-11-26T05:10:01.215Z,96252.06
2022-11-26T05:12:28.971Z,96240.00
2022-11-26T05:14:56.710Z,96252.81
2022-11-26T05:17:25.859Z,96258.16
2022-11-26T05:19:53.651Z,96247.56
2022-11-26T05:22:21.482Z,96254.53
2022-11-26T05:24:49.323Z,96263.13
2022-11-26T05:27:17.105Z,96268.47
2022-11-26T05:29:45.132Z,96267.28
2022-11-26T05:32:12.918Z,96265.16
2022-11-26T05:34:42.033Z,96267.88
2022-11-26T05:37:10.068Z,96270.41
2022-11-26T05:39:37.832Z,96276.59
2022-11-26T05:42:09.373Z,96283.53
2022-11-26T05:44:38.028Z,96280.59
2022-11-26T05:47:06.177Z,96275.72
2022-11-26T05:49:33.996Z,96281.09
2022-11-26T05:52:03.173Z,96289.78
2022-11-26T05:54:30.914Z,96285.78
2022-11-26T05:57:00.401Z,96294.75
2022-11-26T05:59:28.752Z,96289.91
2022-11-26T06:01:56.724Z,96289.78
2022-11-26T06:04:24.688Z,96290.19
2022-11-26T06:06:53.028Z,96288.03
2022-11-26T06:09:22.296Z,96293.84
2022-11-26T06:11:50.513Z,96317.78
2022-11-26T06:14:18.692Z,96315.25
2022-11-26T06:16:46.632Z,96313.94
2022-11-26T06:19:14.606Z,96313.19
2022-11-26T06:21:42.393Z,96323.13
2022-11-26T06:24:10.182Z,96319.94
2022-11-26T06:26:42.295Z,96315.97
2022-11-26T06:29:10.108Z,96323.94
2022-11-26T06:31:37.961Z,96324.13
2022-11-26T06:34:05.848Z,96327.69
2022-11-26T06:36:33.648Z,96322.44
2022-11-26T06:39:01.388Z,96324.28
2022-11-26T06:41:29.159Z,96317.31
2022-11-26T06:43:59.751Z,96324.94
2022-11-26T06:46:27.569Z,96340.50
2022-11-26T06:48:55.458Z,96338.03
2022-11-26T06:51:27.643Z,96348.94
2022-11-26T06:53:55.655Z,96351.00
2022-11-26T06:56:23.431Z,96359.84
2022-11-26T06:58:54.960Z,96365.69
2022-11-26T07:01:25.971Z,96360.84
2022-11-26T07:03:54.551Z,96358.94
2022-11-26T07:06:24.017Z,96359.56
2022-11-26T07:08:53.901Z,96364.41
2022-11-26T07:11:22.356Z,96375.50
2022-11-26T07:13:50.161Z,96367.97
2022-11-26T07:16:18.109Z,96394.78
2022-11-26T07:18:50.876Z,96368.97
2022-11-26T07:21:19.885Z,96372.16
2022-11-26T07:23:48.786Z,96382.91
2022-11-26T07:26:17.752Z,96374.88
2022-11-26T07:28:47.239Z,96372.16
2022-11-26T07:31:17.311Z,96381.84
2022-11-26T07:33:45.949Z,96384.69
2022-11-26T07:36:17.464Z,96382.50
2022-11-26T07:38:45.375Z,96386.19
2022-11-26T07:41:15.082Z,96389.34
2022-11-26T07:43:44.028Z,96396.28
2022-11-26T07:46:17.101Z,96399.06
2022-11-26T07:48:45.533Z,96403.03
2022-11-26T07:51:20.191Z,96406.59
2022-11-26T07:53:48.135Z,96408.00
2022-11-26T07:56:16.370Z,96414.78
2022-11-26T07:58:44.226Z,96421.13
2022-11-26T08:01:14.621Z,96423.81
2022-11-26T08:03:45.959Z,96423.59
2022-11-26T08:06:16.082Z,96431.69
2022-11-26T08:08:45.315Z,96418.31
2022-11-26T08:11:15.823Z,96424.84
2022-11-26T08:13:44.409Z,96429.13
2022-11-26T08:16:12.777Z,96421.50
2022-11-26T08:18:41.199Z,96424.75
2022-11-26T08:21:09.237Z,96411.06
2022-11-26T08:23:37.427Z,96426.47
2022-11-26T08:26:23.763Z,96426.25
2022-11-26T08:28:52.068Z,96433.56
2022-11-26T08:31:21.284Z,96424.28
2022-11-26T08:33:49.198Z,96425.25
2022-11-26T08:36:17.342Z,96433.16
2022-11-26T08:38:45.204Z,96428.53
2022-11-26T08:41:14.925Z,96443.47
2022-11-26T08:46:31.722Z,96447.91
2022-11-26T08:48:59.598Z,96443.81
2022-11-26T08:51:27.479Z,96442.41
2022-11-26T08:53:55.245Z,96443.53
2022-11-26T08:56:26.651Z,96448.09
2022-11-26T08:58:54.458Z,96455.94
2022-11-26T09:01:24.463Z,96455.63
2022-11-26T09:03:54.244Z,96451.38
2022-11-26T09:06:23.781Z,96456.72
2022-11-26T09:09:09.469Z,96465.13
2022-11-26T09:11:41.373Z,96463.63
2022-11-26T09:14:09.717Z,96474.16
2022-11-26T09:16:37.882Z,96477.09
2022-11-26T09:19:07.291Z,96479.06
2022-11-26T09:21:36.345Z,96486.47
2022-11-26T09:24:04.847Z,96479.94
2022-11-26T09:26:33.453Z,96476.16
2022-11-26T09:29:03.216Z,96488.31
2022-11-26T09:31:31.293Z,96495.94
2022-11-26T09:34:00.211Z,96496.66
2022-11-26T09:36:28.363Z,96495.19
2022-11-26T09:38:56.347Z,96500.44
2022-11-26T09:41:36.187Z,96501.19
2022-11-26T09:44:22.137Z,96499.66
2022-11-26T09:47:15.356Z,96493.59
2022-11-26T09:49:56.239Z,96499.72
2022-11-26T09:52:27.955Z,96491.06
2022-11-26T09:55:04.008Z,96490.22
2022-11-26T09:57:38.280Z,96490.53
2022-11-26T10:00:22.458Z,96485.44
2022-11-26T10:02:53.447Z,96485.22
2022-11-26T10:05:24.039Z,96493.53
2022-11-26T10:08:03.625Z,96484.22
2022-11-26T10:10:37.915Z,96486.31
2022-11-26T10:13:19.511Z,96479.47
2022-11-26T10:15:59.241Z,96490.03
2022-11-26T10:18:35.543Z,96484.53
2022-11-26T10:21:27.416Z,96492.84
2022-11-26T10:24:05.473Z,96482.66
2022-11-26T10:26:37.047Z,96477.13
2022-11-26T10:29:24.309Z,96481.03
2022-11-26T10:31:59.744Z,96479.84
2022-11-26T10:34:39.458Z,96483.66
2022-11-26T10:37:07.841Z,96482.59
2022-11-26T10:39:35.682Z,96475.38
2022-11-26T10:42:05.857Z,96476.47
2022-11-26T10:44:37.413Z,96472.53
2022-11-26T10:47:28.692Z,96474.88
2022-11-26T10:50:39.528Z,96467.75
2022-11-26T10:53:06.113Z,96476.16
2022-11-26T10:55:40.588Z,96464.53
2022-11-26T10:58:17.277Z,96470.53
2022-11-26T11:00:55.217Z,96469.72
2022-11-26T11:03:59.333Z,96464.88
2022-11-26T11:06:28.844Z,96460.53
2022-11-26T11:08:56.949Z,96458.38
2022-11-26T11:11:28.112Z,96460.81
2022-11-26T11:13:56.829Z,96454.34
2022-11-26T11:16:28.471Z,96442.88
2022-11-26T11:18:59.169Z,96439.94
2022-11-26T11:21:34.930Z,96440.47
2022-11-26T11:24:14.314Z,96428.72
2022-11-26T11:26:45.334Z,96426.50
2022-11-26T11:29:34.076Z,96419.78
2022-11-26T11:32:04.528Z,96415.22
2022-11-26T11:34:38.249Z,96409.59
2022-11-26T11:37:15.188Z,96408.66
2022-11-26T11:39:44.383Z,96405.56
2022-11-26T11:42:21.971Z,96402.75
2022-11-26T11:44:52.460Z,96409.38
2022-11-26T11:47:35.671Z,96410.00
2022-11-26T11:50:17.876Z,96410.41
2022-11-26T11:52:57.365Z,96408.53
2022-11-26T11:55:37.553Z,96418.53
2022-11-26T11:58:18.407Z,96415.59
2022-11-26T12:00:53.452Z,96420.00
2022-11-26T12:03:44.678Z,96420.94
2022-11-26T12:06:24.060Z,96415.13
2022-11-26T12:09:03.532Z,96416.25
2022-11-26T12:11:43.287Z,96420.56
2022-11-26T12:14:18.855Z,96420.47
2022-11-26T12:16:51.115Z,96426.50
2022-11-26T12:19:28.788Z,96429.53
2022-11-26T12:22:06.910Z,96439.66
2022-11-26T12:24:41.915Z,96438.06
2022-11-26T12:27:21.788Z,96426.28
2022-11-26T12:29:55.376Z,96438.84
2022-11-26T12:32:31.907Z,96443.81
2022-11-26T12:35:05.784Z,96455.47
2022-11-26T12:37:40.615Z,96447.03
2022-11-26T12:40:20.532Z,96446.59
2022-11-26T12:42:59.022Z,96447.13
2022-11-26T12:45:39.806Z,96454.41
2022-11-26T12:48:19.368Z,96447.09
2022-11-26T12:50:51.870Z,96446.66
2022-11-26T12:53:32.886Z,96448.16
2022-11-26T12:56:10.539Z,96445.78
2022-11-26T12:58:45.709Z,96449.78
2022-11-26T13:01:13.697Z,96459.25
2022-11-26T13:03:42.930Z,96467.16
2022-11-26T13:06:21.188Z,96458.31
2022-11-26T13:08:59.938Z,96453.53
2022-11-26T13:11:37.633Z,96466.19
2022-11-26T13:14:13.936Z,96463.75
2022-11-26T13:16:48.222Z,96472.47
2022-11-26T13:19:23.843Z,96470.00
2022-11-26T13:22:14.401Z,96465.59
2022-11-26T13:25:00.986Z,96470.25
2022-11-26T13:27:42.982Z,96468.16
2022-11-26T13:30:18.359Z,96459.91
2022-11-26T13:33:32.883Z,96460.91
2022-11-26T13:36:35.907Z,96465.34
2022-11-26T13:39:13.929Z,96457.63
2022-11-26T13:42:05.039Z,96461.66
2022-11-26T13:44:56.634Z,96454.38
2022-11-26T13:47:30.102Z,96459.25
2022-11-26T13:50:03.340Z,96459.28
2022-11-26T13:52:36.176Z,96452.34
2022-11-26T13:55:10.102Z,96467.97
2022-11-26T13:57:43.013Z,96453.00
2022-11-26T14:00:12.493Z,96457.75
2022-11-26T14:02:44.501Z,96458.88
2022-11-26T14:05:14.568Z,96453.84
2022-11-26T14:07:42.673Z,96451.41
2022-11-26T14:10:43.725Z,96452.53
2022-11-26T14:13:15.760Z,96451.09
2022-11-26T14:15:55.393Z,96443.88
2022-11-26T14:19:05.973Z,96441.84
2022-11-26T14:22:00.962Z,96448.44
2022-11-26T14:24:57.421Z,96459.09
2022-11-26T14:27:27.114Z,96455.25
2022-11-26T14:30:01.189Z,96443.88
2022-11-26T14:32:33.719Z,96449.13
2022-11-26T14:35:01.524Z,96441.50
2022-11-26T14:37:31.841Z,96442.19
2022-11-26T14:40:00.925Z,96434.41
2022-11-26T14:42:29.448Z,96440.97
2022-11-26T14:45:06.605Z,96435.72
2022-11-26T14:47:34.817Z,96445.63
2022-11-26T14:50:05.774Z,96441.75
2022-11-26T14:52:35.849Z,96446.44
2022-11-26T14:55:07.546Z,96452.84
2022-11-26T14:57:47.178Z,96451.38
2022-11-26T15:00:25.860Z,96450.03
2022-11-26T15:02:54.298Z,96454.44
2022-11-26T15:05:24.937Z,96453.09
2022-11-26T15:08:02.408Z,96454.16
2022-11-26T15:10:33.971Z,96452.78
2022-11-26T15:13:06.958Z,96451.00
2022-11-26T15:15:36.187Z,96456.63
2022-11-26T15:18:06.642Z,96451.38
2022-11-26T15:20:34.868Z,96457.91
2022-11-26T15:23:06.673Z,96457.09
2022-11-26T15:25:37.254Z,96460.53
2022-11-26T15:28:07.273Z,96456.22
2022-11-26T15:30:38.449Z,96458.41
2022-11-26T15:33:15.066Z,96462.19
2022-11-26T15:35:43.793Z,96463.38
2022-11-26T15:38:15.461Z,96458.09
2022-11-26T15:40:48.428Z,96465.97
2022-11-26T15:43:23.583Z,96456.69
2022-11-26T15:45:54.249Z,96458.69
2022-11-26T15:48:44.075Z,96453.19
2022-11-26T15:51:22.521Z,96452.44
2022-11-26T15:53:51.633Z,96456.13
2022-11-26T15:56:21.974Z,96450.63
2022-11-26T15:58:55.036Z,96449.00
2022-11-26T16:01:27.190Z,96456.97
2022-11-26T16:03:56.500Z,96455.81
2022-11-26T16:06:34.356Z,96443.34
2022-11-26T16:09:07.154Z,96449.81
2022-11-26T16:11:37.884Z,96440.91
2022-11-26T16:14:29.477Z,96438.63
2022-11-26T16:17:03.778Z,96436.88
2022-11-26T16:19:34.415Z,96439.41
2022-11-26T16:22:04.831Z,96437.56
2022-11-26T16:24:38.647Z,96438.72
2022-11-26T16:27:08.639Z,96437.47
2022-11-26T16:29:36.845Z,96444.44
2022-11-26T16:32:06.071Z,96436.56
2022-11-26T16:34:33.829Z,96430.81
2022-11-26T16:37:17.604Z,96433.84
2022-11-26T16:39:45.456Z,96444.22
2022-11-26T16:42:18.224Z,96435.81
2022-11-26T16:44:45.987Z,96432.56
2022-11-26T16:47:20.843Z,96424.97
2022-11-26T16:49:48.661Z,96433.06
2022-11-26T16:52:18.691Z,96436.19
2022-11-26T16:54:46.711Z,96430.44
2022-11-26T16:57:16.937Z,96434.47
2022-11-26T16:59:46.576Z,96437.25
2022-11-26T17:02:18.157Z,96423.88
2022-11-26T17:04:46.411Z,96427.69
2022-11-26T17:07:15.340Z,96431.16
2022-11-26T17:09:43.758Z,96427.13
2022-11-26T17:12:17.084Z,96428.38
2022-11-26T17:14:47.216Z,96423.44
2022-11-26T17:17:20.605Z,96421.03
2022-11-26T17:19:51.742Z,96424.63
2022-11-26T17:22:20.242Z,96423.69
2022-11-26T17:24:48.071Z,96417.69
2022-11-26T17:27:17.990Z,96425.31
2022-11-26T17:29:54.591Z,96418.16
2022-11-26T17:32:23.742Z,96425.66
2022-11-26T17:34:51.557Z,96432.69
2022-11-26T17:37:24.787Z,96424.28
2022-11-26T17:39:52.978Z,96428.78
2022-11-26T17:42:23.729Z,96424.06
2022-11-26T17:44:53.008Z,96421.88
2022-11-26T17:47:23.842Z,96424.88
2022-11-26T17:49:52.495Z,96429.94
2022-11-26T17:52:20.638Z,96427.28
2022-11-26T17:54:48.558Z,96433.16
2022-11-26T17:57:17.887Z,96424.19
2022-11-26T17:59:45.869Z,96426.94
2022-11-26T18:02:13.743Z,96432.47
2022-11-26T18:04:42.994Z,96430.50
2022-11-26T18:07:14.815Z,96435.19
2022-11-26T18:09:43.214Z,96428.19
2022-11-26T18:12:23.149Z,96444.97
2022-11-26T18:14:52.772Z,96443.72
2022-11-26T18:17:20.655Z,96447.00
2022-11-26T18:19:50.976Z,96457.03
2022-11-26T18:22:22.565Z,96449.69
2022-11-26T18:24:56.397Z,96457.03
2022-11-26T18:27:27.209Z,96452.53
2022-11-26T18:29:55.554Z,96455.63
2022-11-26T18:32:23.487Z,96457.78
2022-11-26T18:34:52.863Z,96461.00
2022-11-26T18:37:20.619Z,96463.63
2022-11-26T18:39:48.529Z,96469.50
2022-11-26T18:42:35.990Z,96472.84
2022-11-26T18:45:04.513Z,96478.00
2022-11-26T18:47:32.385Z,96473.25
2022-11-26T18:50:01.515Z,96461.38
2022-11-26T18:52:29.411Z,96458.97
2022-11-26T18:54:57.301Z,96467.34
2022-11-26T18:57:25.156Z,96464.22
2022-11-26T18:59:52.982Z,96471.91
2022-11-26T19:02:20.869Z,96474.88
2022-11-26T19:04:48.912Z,96476.59
2022-11-26T19:07:18.148Z,96470.72
2022-11-26T19:09:46.115Z,96475.88
2022-11-26T19:12:14.191Z,96480.94
2022-11-26T19:14:42.017Z,96478.63
2022-11-26T19:17:09.869Z,96481.25
2022-11-26T19:19:39.208Z,96478.03
2022-11-26T19:22:07.359Z,96478.03
2022-11-26T19:24:36.690Z,96475.13
2022-11-26T19:27:04.521Z,96474.94
2022-11-26T19:29:32.328Z,96480.88
2022-11-26T19:32:00.088Z,96470.78
2022-11-26T19:34:27.901Z,96473.22
2022-11-26T19:36:57.748Z,96479.78
2022-11-26T19:39:25.787Z,96475.13
2022-11-26T19:41:55.319Z,96477.22
2022-11-26T19:44:23.230Z,96465.41
2022-11-26T19:46:51.153Z,96473.84
2022-11-26T19:49:18.909Z,96464.47
2022-11-26T19:51:46.768Z,96471.34
2022-11-26T19:54:14.640Z,96460.13
2022-11-26T19:56:43.034Z,96456.78
2022-11-26T19:59:12.481Z,96455.97
2022-11-26T20:01:40.288Z,96445.47
2022-11-26T20:04:12.289Z,96444.34
2022-11-26T20:06:40.133Z,96450.78
2022-11-26T20:09:09.467Z,96444.25
2022-11-26T20:11:39.331Z,96446.53
2022-11-26T20:14:10.596Z,96443.19
2022-11-26T20:16:41.841Z,96448.28
2022-11-26T20:19:11.804Z,96441.50
2022-11-26T20:21:40.204Z,96439.09
2022-11-26T20:24:11.871Z,96446.56
2022-11-26T20:26:41.709Z,96450.00
2022-11-26T20:29:11.840Z,96442.59
2022-11-26T20:31:45.227Z,96441.47
2022-11-26T20:34:14.295Z,96433.09
2022-11-26T20:36:42.097Z,96435.63
2022-11-26T20:39:14.078Z,96432.38
2022-11-26T20:41:41.826Z,96436.94
2022-11-26T20:44:10.125Z,96432.59
2022-11-26T20:46:38.002Z,96434.84
2022-11-26T20:49:08.190Z,96430.13
2022-11-26T20:51:36.054Z,96433.06
2022-11-26T20:54:04.014Z,96419.44
2022-11-26T20:56:31.957Z,96412.97
2022-11-26T20:58:59.759Z,96412.56
2022-11-26T21:01:29.457Z,96416.88
2022-11-26T21:03:58.192Z,96401.00
2022-11-26T21:06:30.357Z,96406.16
2022-11-26T21:09:01.481Z,96392.41
2022-11-26T21:11:30.163Z,96410.41
2022-11-26T21:13:59.738Z,96406.72
2022-11-26T21:16:28.443Z,96415.78
2022-11-26T21:18:56.439Z,96405.88
2022-11-26T21:21:26.265Z,96409.53
2022-11-26T21:23:55.809Z,96399.53
2022-11-26T21:26:25.311Z,96398.63
2022-11-26T21:28:53.731Z,96404.47
2022-11-26T21:31:22.274Z,96400.13
2022-11-26T21:33:55.673Z,96401.84
2022-11-26T21:36:24.791Z,96405.38
2022-11-26T21:38:52.849Z,96408.13
2022-11-26T21:41:22.728Z,96405.09
2022-11-26T21:43:51.713Z,96406.34
2022-11-26T21:46:21.348Z,96405.53
2022-11-26T21:48:49.300Z,96380.41
2022-11-26T21:51:19.072Z,96395.06
2022-11-26T21:53:49.494Z,96393.63
2022-11-26T21:56:19.613Z,96389.81
2022-11-26T21:58:49.474Z,96384.34
2022-11-26T22:01:20.220Z,96388.50
2022-11-26T22:03:50.534Z,96378.41
2022-11-26T22:06:19.507Z,96381.97
2022-11-26T22:08:48.372Z,96392.78
2022-11-26T22:11:17.811Z,96397.22
2022-11-26T22:13:46.177Z,96399.16
2022-11-26T22:16:17.310Z,96388.56
2022-11-26T22:18:46.301Z,96404.91
2022-11-26T22:21:15.994Z,96402.78
2022-11-26T22:23:44.947Z,96404.50
2022-11-26T22:26:13.318Z,96398.84
2022-11-26T22:28:41.506Z,96400.38
2022-11-26T22:31:11.465Z,96402.28
2022-11-26T22:33:40.952Z,96405.72
2022-11-26T22:36:09.636Z,96399.25
2022-11-26T22:38:39.463Z,96400.88
2022-11-26T22:41:08.926Z,96417.94
2022-11-26T22:43:37.704Z,96411.66
2022-11-26T22:46:06.979Z,96417.72
2022-11-26T22:48:35.310Z,96416.31
2022-11-26T22:51:05.209Z,96406.03
2022-11-26T22:53:34.301Z,96429.88
2022-11-26T22:56:03.899Z,96430.06
2022-11-26T22:58:33.862Z,96424.31
2022-11-26T23:01:04.169Z,96424.53
2022-11-26T23:03:34.530Z,96418.38
2022-11-26T23:06:09.035Z,96415.94
2022-11-26T23:08:37.583Z,96412.72
2022-11-26T23:11:16.779Z,96414.72
2022-11-26T23:13:46.466Z,96408.78
2022-11-26T23:16:15.430Z,96405.25
2022-11-26T23:18:43.415Z,96401.09
2022-11-26T23:21:15.748Z,96399.09
2022-11-26T23:23:44.338Z,96401.50
2022-11-26T23:26:20.396Z,96389.69
2022-11-26T23:28:51.320Z,96388.34
2022-11-26T23:31:20.820Z,96378.50
2022-11-26T23:33:50.859Z,96368.38
2022-11-26T23:36:20.840Z,96374.25
2022-11-26T23:38:49.025Z,96372.72
2022-11-26T23:41:17.428Z,96379.28
2022-11-26T23:43:46.792Z,96380.41
2022-11-26T23:46:17.193Z,96381.13
2022-11-26T23:48:45.789Z,96372.84
2022-11-26T23:51:15.831Z,96370.00
2022-11-26T23:53:46.899Z,96360.03
2022-11-26T23:56:18.474Z,96367.59
2022-11-26T23:58:49.557Z,96366.88
